sensor_id;sensor_type;location;lat;lon;timestamp;pressure;altitude;pressure_sealevel;temperature;humidity
46448;BME280;32145;50.390;30.778;2023-07-29T00:01:35;99359.63;;;16.85;70.25
46448;BME280;32145;50.390;30.778;2023-07-29T00:04:31;99351.72;;;16.84;70.25
46448;BME280;32145;50.390;30.778;2023-07-29T00:07:28;99350.91;;;16.83;70.38
46448;BME280;32145;50.390;30.778;2023-07-29T00:10:24;99353.34;;;16.85;70.75
46448;BME280;32145;50.390;30.778;2023-07-29T00:13:21;99351.41;;;16.85;70.91
46448;BME280;32145;50.390;30.778;2023-07-29T00:16:18;99353.34;;;16.85;70.77
46448;BME280;32145;50.390;30.778;2023-07-29T00:19:14;99355.84;;;16.81;70.82
46448;BME280;32145;50.390;30.778;2023-07-29T00:22:10;99360.78;;;16.79;70.46
46448;BME280;32145;50.390;30.778;2023-07-29T00:25:07;99355.31;;;16.79;70.34
46448;BME280;32145;50.390;30.778;2023-07-29T00:28:02;99349.84;;;16.79;69.85
46448;BME280;32145;50.390;30.778;2023-07-29T00:30:57;99348.22;;;16.78;69.93
46448;BME280;32145;50.390;30.778;2023-07-29T00:33:51;99355.88;;;16.76;69.88
46448;BME280;32145;50.390;30.778;2023-07-29T00:36:46;99342.78;;;16.73;69.85
46448;BME280;32145;50.390;30.778;2023-07-29T00:39:42;99343.59;;;16.73;69.96
46448;BME280;32145;50.390;30.778;2023-07-29T00:42:38;99335.63;;;16.77;69.43
46448;BME280;32145;50.390;30.778;2023-07-29T00:45:35;99331.75;;;16.83;69.29
46448;BME280;32145;50.390;30.778;2023-07-29T00:48:33;99338.81;;;16.90;69.16
46448;BME280;32145;50.390;30.778;2023-07-29T00:51:29;99335.19;;;16.94;69.10
46448;BME280;32145;50.390;30.778;2023-07-29T00:54:26;99337.06;;;16.99;68.68
46448;BME280;32145;50.390;30.778;2023-07-29T00:57:23;99344.13;;;17.05;68.59
46448;BME280;32145;50.390;30.778;2023-07-29T01:00:20;99340.00;;;17.08;67.96
46448;BME280;32145;50.390;30.778;2023-07-29T01:03:17;99334.75;;;17.11;67.29
46448;BME280;32145;50.390;30.778;2023-07-29T01:06:18;99345.38;;;17.18;66.80
46448;BME280;32145;50.390;30.778;2023-07-29T01:09:23;99348.38;;;17.17;66.53
46448;BME280;32145;50.390;30.778;2023-07-29T01:12:21;99345.38;;;17.18;66.27
46448;BME280;32145;50.390;30.778;2023-07-29T01:15:21;99349.44;;;17.21;66.02
46448;BME280;32145;50.390;30.778;2023-07-29T01:18:21;99345.63;;;17.22;65.99
46448;BME280;32145;50.390;30.778;2023-07-29T01:21:18;99341.19;;;17.26;66.04
46448;BME280;32145;50.390;30.778;2023-07-29T01:24:14;99342.22;;;17.30;65.97
46448;BME280;32145;50.390;30.778;2023-07-29T01:27:09;99341.13;;;17.31;66.04
46448;BME280;32145;50.390;30.778;2023-07-29T01:30:04;99335.63;;;17.31;65.75
46448;BME280;32145;50.390;30.778;2023-07-29T01:33:04;99343.56;;;17.33;66.09
46448;BME280;32145;50.390;30.778;2023-07-29T01:36:03;99348.75;;;17.34;66.07
46448;BME280;32145;50.390;30.778;2023-07-29T01:38:59;99339.41;;;17.35;66.14
46448;BME280;32145;50.390;30.778;2023-07-29T01:41:57;99335.00;;;17.39;66.34
46448;BME280;32145;50.390;30.778;2023-07-29T01:44:51;99340.47;;;17.39;66.14
46448;BME280;32145;50.390;30.778;2023-07-29T01:47:45;99345.38;;;17.43;66.34
46448;BME280;32145;50.390;30.778;2023-07-29T01:50:41;99345.88;;;17.45;66.22
46448;BME280;32145;50.390;30.778;2023-07-29T01:53:38;99352.19;;;17.45;66.38
46448;BME280;32145;50.390;30.778;2023-07-29T01:56:32;99346.13;;;17.48;66.46
46448;BME280;32145;50.390;30.778;2023-07-29T01:59:28;99353.75;;;17.51;66.54
46448;BME280;32145;50.390;30.778;2023-07-29T02:02:22;99358.63;;;17.55;66.32
46448;BME280;32145;50.390;30.778;2023-07-29T02:05:17;99354.19;;;17.59;66.27
46448;BME280;32145;50.390;30.778;2023-07-29T02:08:11;99352.22;;;17.64;66.27
46448;BME280;32145;50.390;30.778;2023-07-29T02:11:05;99353.25;;;17.69;66.16
46448;BME280;32145;50.390;30.778;2023-07-29T02:14:02;99357.56;;;17.75;66.02
46448;BME280;32145;50.390;30.778;2023-07-29T02:16:59;99356.97;;;17.78;65.93
46448;BME280;32145;50.390;30.778;2023-07-29T02:19:53;99356.09;;;17.83;65.87
46448;BME280;32145;50.390;30.778;2023-07-29T02:22:48;99365.66;;;17.85;65.83
46448;BME280;32145;50.390;30.778;2023-07-29T02:25:42;99363.72;;;17.86;66.17
46448;BME280;32145;50.390;30.778;2023-07-29T02:28:36;99359.06;;;17.86;66.05
46448;BME280;32145;50.390;30.778;2023-07-29T02:31:31;99352.16;;;17.89;65.91
46448;BME280;32145;50.390;30.778;2023-07-29T02:34:26;99346.91;;;17.93;65.69
46448;BME280;32145;50.390;30.778;2023-07-29T02:37:21;99344.69;;;17.95;65.52
46448;BME280;32145;50.390;30.778;2023-07-29T02:40:15;99349.59;;;17.98;65.45
46448;BME280;32145;50.390;30.778;2023-07-29T02:43:09;99360.25;;;17.99;65.37
46448;BME280;32145;50.390;30.778;2023-07-29T02:46:04;99357.72;;;18.03;65.21
46448;BME280;32145;50.390;30.778;2023-07-29T02:48:58;99364.84;;;18.04;65.09
46448;BME280;32145;50.390;30.778;2023-07-29T02:51:54;99370.84;;;18.06;65.18
46448;BME280;32145;50.390;30.778;2023-07-29T02:54:48;99366.16;;;18.07;65.30
46448;BME280;32145;50.390;30.778;2023-07-29T02:57:42;99360.69;;;18.07;65.15
46448;BME280;32145;50.390;30.778;2023-07-29T03:00:37;99366.44;;;18.10;65.38
46448;BME280;32145;50.390;30.778;2023-07-29T03:03:33;99369.69;;;18.12;65.12
46448;BME280;32145;50.390;30.778;2023-07-29T03:06:29;99368.59;;;18.13;65.13
46448;BME280;32145;50.390;30.778;2023-07-29T03:09:27;99371.03;;;18.15;65.11
46448;BME280;32145;50.390;30.778;2023-07-29T03:12:23;99361.41;;;18.18;65.11
46448;BME280;32145;50.390;30.778;2023-07-29T03:15:23;99366.59;;;18.19;65.09
46448;BME280;32145;50.390;30.778;2023-07-29T03:18:19;99365.78;;;18.19;64.97
46448;BME280;32145;50.390;30.778;2023-07-29T03:21:14;99365.25;;;18.16;64.93
46448;BME280;32145;50.390;30.778;2023-07-29T03:24:08;99364.72;;;18.14;65.06
46448;BME280;32145;50.390;30.778;2023-07-29T03:27:04;99376.75;;;18.19;65.03
46448;BME280;32145;50.390;30.778;2023-07-29T03:29:59;99369.75;;;18.26;64.97
46448;BME280;32145;50.390;30.778;2023-07-29T03:32:53;99384.16;;;18.37;64.91
46448;BME280;32145;50.390;30.778;2023-07-29T03:35:47;99390.09;;;18.45;64.89
46448;BME280;32145;50.390;30.778;2023-07-29T03:38:41;99378.72;;;18.51;64.72
46448;BME280;32145;50.390;30.778;2023-07-29T03:41:38;99371.16;;;18.76;65.03
46448;BME280;32145;50.390;30.778;2023-07-29T03:44:35;99374.44;;;19.54;63.39
46448;BME280;32145;50.390;30.778;2023-07-29T03:47:32;99373.13;;;20.16;61.68
46448;BME280;32145;50.390;30.778;2023-07-29T03:50:29;99375.41;;;20.00;60.90
46448;BME280;32145;50.390;30.778;2023-07-29T03:53:25;99371.66;;;19.82;61.33
46448;BME280;32145;50.390;30.778;2023-07-29T03:56:22;99367.72;;;19.46;61.83
46448;BME280;32145;50.390;30.778;2023-07-29T03:59:18;99373.53;;;19.16;62.65
46448;BME280;32145;50.390;30.778;2023-07-29T04:02:16;99366.97;;;18.98;63.73
46448;BME280;32145;50.390;30.778;2023-07-29T04:05:12;99371.91;;;18.82;63.94
46448;BME280;32145;50.390;30.778;2023-07-29T04:08:08;99379.69;;;18.75;64.57
46448;BME280;32145;50.390;30.778;2023-07-29T04:11:05;99380.81;;;18.74;64.89
46448;BME280;32145;50.390;30.778;2023-07-29T04:14:01;99375.47;;;18.83;64.90
46448;BME280;32145;50.390;30.778;2023-07-29T04:16:57;99379.09;;;19.11;64.65
46448;BME280;32145;50.390;30.778;2023-07-29T04:19:55;99386.13;;;19.17;64.56
46448;BME280;32145;50.390;30.778;2023-07-29T04:22:51;99388.38;;;19.43;64.43
46448;BME280;32145;50.390;30.778;2023-07-29T04:25:48;99386.63;;;19.62;63.47
46448;BME280;32145;50.390;30.778;2023-07-29T04:28:44;99383.38;;;19.74;62.87
46448;BME280;32145;50.390;30.778;2023-07-29T04:31:40;99381.53;;;19.69;62.34
46448;BME280;32145;50.390;30.778;2023-07-29T04:34:37;99390.72;;;19.50;62.59
46448;BME280;32145;50.390;30.778;2023-07-29T04:37:35;99392.84;;;19.53;62.85
46448;BME280;32145;50.390;30.778;2023-07-29T04:40:32;99397.13;;;19.45;63.15
46448;BME280;32145;50.390;30.778;2023-07-29T04:43:30;99397.84;;;19.37;63.27
46448;BME280;32145;50.390;30.778;2023-07-29T04:46:27;99396.13;;;19.27;63.57
46448;BME280;32145;50.390;30.778;2023-07-29T04:49:23;99400.69;;;19.32;64.07
46448;BME280;32145;50.390;30.778;2023-07-29T04:52:19;99390.09;;;19.39;63.94
46448;BME280;32145;50.390;30.778;2023-07-29T04:55:15;99394.56;;;19.49;63.75
46448;BME280;32145;50.390;30.778;2023-07-29T04:58:09;99391.63;;;19.45;63.28
46448;BME280;32145;50.390;30.778;2023-07-29T05:01:04;99388.88;;;19.45;63.18
46448;BME280;32145;50.390;30.778;2023-07-29T05:03:58;99391.94;;;19.44;62.70
46448;BME280;32145;50.390;30.778;2023-07-29T05:06:54;99386.44;;;19.44;63.16
46448;BME280;32145;50.390;30.778;2023-07-29T05:09:51;99389.59;;;19.51;63.12
46448;BME280;32145;50.390;30.778;2023-07-29T05:12:46;99392.25;;;19.56;62.96
46448;BME280;32145;50.390;30.778;2023-07-29T05:15:41;99388.06;;;19.59;62.63
46448;BME280;32145;50.390;30.778;2023-07-29T05:18:35;99386.25;;;19.68;62.60
46448;BME280;32145;50.390;30.778;2023-07-29T05:21:30;99393.16;;;19.80;62.64
46448;BME280;32145;50.390;30.778;2023-07-29T05:24:24;99393.13;;;19.94;62.49
46448;BME280;32145;50.390;30.778;2023-07-29T05:27:18;99385.38;;;19.96;61.66
46448;BME280;32145;50.390;30.778;2023-07-29T05:30:16;99388.03;;;20.01;61.62
46448;BME280;32145;50.390;30.778;2023-07-29T05:33:12;99386.19;;;20.11;61.53
46448;BME280;32145;50.390;30.778;2023-07-29T05:36:09;99391.22;;;20.31;61.22
46448;BME280;32145;50.390;30.778;2023-07-29T05:39:05;99389.66;;;20.62;60.90
46448;BME280;32145;50.390;30.778;2023-07-29T05:42:01;99397.53;;;20.55;60.06
46448;BME280;32145;50.390;30.778;2023-07-29T05:44:58;99398.19;;;20.52;60.72
46448;BME280;32145;50.390;30.778;2023-07-29T05:47:55;99393.47;;;20.75;59.91
46448;BME280;32145;50.390;30.778;2023-07-29T05:50:52;99394.03;;;20.86;59.54
46448;BME280;32145;50.390;30.778;2023-07-29T05:53:48;99405.00;;;21.00;59.40
46448;BME280;32145;50.390;30.778;2023-07-29T05:56:44;99394.16;;;21.04;59.06
46448;BME280;32145;50.390;30.778;2023-07-29T05:59:39;99398.81;;;20.94;58.91
46448;BME280;32145;50.390;30.778;2023-07-29T06:02:35;99395.31;;;20.80;59.25
46448;BME280;32145;50.390;30.778;2023-07-29T06:05:34;99401.59;;;20.80;59.21
46448;BME280;32145;50.390;30.778;2023-07-29T06:08:23;99398.38;;;20.78;59.54
46448;BME280;32145;50.390;30.778;2023-07-29T06:11:19;99402.66;;;20.70;59.15
46448;BME280;32145;50.390;30.778;2023-07-29T06:14:15;99401.19;;;20.64;59.37
46448;BME280;32145;50.390;30.778;2023-07-29T06:17:12;99401.97;;;20.65;59.31
46448;BME280;32145;50.390;30.778;2023-07-29T06:20:09;99398.81;;;20.71;59.35
46448;BME280;32145;50.390;30.778;2023-07-29T06:23:07;99401.28;;;20.82;59.04
46448;BME280;32145;50.390;30.778;2023-07-29T06:26:04;99401.19;;;20.87;58.96
46448;BME280;32145;50.390;30.778;2023-07-29T06:29:00;99406.56;;;21.15;58.85
46448;BME280;32145;50.390;30.778;2023-07-29T06:31:56;99393.63;;;21.24;57.79
46448;BME280;32145;50.390;30.778;2023-07-29T06:34:52;99397.03;;;21.30;58.25
46448;BME280;32145;50.390;30.778;2023-07-29T06:37:49;99381.91;;;21.19;57.89
46448;BME280;32145;50.390;30.778;2023-07-29T06:40:46;99387.94;;;21.21;58.46
46448;BME280;32145;50.390;30.778;2023-07-29T06:43:40;99384.34;;;21.20;57.88
46448;BME280;32145;50.390;30.778;2023-07-29T06:46:35;99382.59;;;21.24;58.01
46448;BME280;32145;50.390;30.778;2023-07-29T06:49:29;99390.44;;;21.40;57.96
46448;BME280;32145;50.390;30.778;2023-07-29T06:52:25;99388.50;;;21.49;57.80
46448;BME280;32145;50.390;30.778;2023-07-29T06:55:22;99388.94;;;21.34;57.75
46448;BME280;32145;50.390;30.778;2023-07-29T06:58:20;99386.28;;;21.20;58.08
46448;BME280;32145;50.390;30.778;2023-07-29T07:01:16;99390.75;;;21.38;58.08
46448;BME280;32145;50.390;30.778;2023-07-29T07:04:12;99385.91;;;21.44;57.88
46448;BME280;32145;50.390;30.778;2023-07-29T07:07:08;99388.63;;;21.35;57.94
46448;BME280;32145;50.390;30.778;2023-07-29T07:10:05;99393.34;;;21.35;58.53
46448;BME280;32145;50.390;30.778;2023-07-29T07:13:02;99387.09;;;21.61;58.55
46448;BME280;32145;50.390;30.778;2023-07-29T07:15:58;99391.91;;;21.87;57.31
46448;BME280;32145;50.390;30.778;2023-07-29T07:18:52;99395.16;;;22.07;56.91
46448;BME280;32145;50.390;30.778;2023-07-29T07:21:46;99397.44;;;22.05;57.20
46448;BME280;32145;50.390;30.778;2023-07-29T07:24:41;99396.94;;;22.02;57.04
46448;BME280;32145;50.390;30.778;2023-07-29T07:27:36;99395.63;;;21.91;57.57
46448;BME280;32145;50.390;30.778;2023-07-29T07:30:31;99402.25;;;21.90;57.59
46448;BME280;32145;50.390;30.778;2023-07-29T07:33:26;99395.50;;;22.05;57.26
46448;BME280;32145;50.390;30.778;2023-07-29T07:36:20;99393.38;;;22.28;57.03
46448;BME280;32145;50.390;30.778;2023-07-29T07:39:15;99390.13;;;22.53;56.13
46448;BME280;32145;50.390;30.778;2023-07-29T07:42:09;99391.94;;;22.58;55.97
46448;BME280;32145;50.390;30.778;2023-07-29T07:45:06;99388.50;;;22.43;56.38
46448;BME280;32145;50.390;30.778;2023-07-29T07:48:02;99392.91;;;22.62;55.93
46448;BME280;32145;50.390;30.778;2023-07-29T07:50:57;99386.22;;;22.72;55.32
46448;BME280;32145;50.390;30.778;2023-07-29T07:53:52;99377.28;;;22.48;55.84
46448;BME280;32145;50.390;30.778;2023-07-29T07:56:46;99386.72;;;22.38;56.18
46448;BME280;32145;50.390;30.778;2023-07-29T07:59:40;99386.72;;;22.30;57.48
46448;BME280;32145;50.390;30.778;2023-07-29T08:02:37;99374.53;;;22.39;57.31
46448;BME280;32145;50.390;30.778;2023-07-29T08:05:33;99376.19;;;22.58;56.66
46448;BME280;32145;50.390;30.778;2023-07-29T08:08:29;99385.09;;;22.55;56.41
46448;BME280;32145;50.390;30.778;2023-07-29T08:11:23;99383.50;;;22.63;56.42
46448;BME280;32145;50.390;30.778;2023-07-29T08:14:17;99375.47;;;22.79;56.11
46448;BME280;32145;50.390;30.778;2023-07-29T08:17:12;99388.63;;;22.91;55.72
46448;BME280;32145;50.390;30.778;2023-07-29T08:20:07;99390.38;;;22.96;55.67
46448;BME280;32145;50.390;30.778;2023-07-29T08:23:01;99393.94;;;23.14;55.54
46448;BME280;32145;50.390;30.778;2023-07-29T08:26:01;99388.03;;;23.24;55.07
46448;BME280;32145;50.390;30.778;2023-07-29T08:28:57;99385.44;;;23.28;54.73
46448;BME280;32145;50.390;30.778;2023-07-29T08:31:53;99392.56;;;23.29;54.74
46448;BME280;32145;50.390;30.778;2023-07-29T08:34:49;99388.34;;;23.32;55.09
46448;BME280;32145;50.390;30.778;2023-07-29T08:37:46;99381.50;;;23.38;54.86
46448;BME280;32145;50.390;30.778;2023-07-29T08:40:45;99382.28;;;23.47;54.72
46448;BME280;32145;50.390;30.778;2023-07-29T08:43:50;99383.47;;;23.67;54.41
46448;BME280;32145;50.390;30.778;2023-07-29T08:46:48;99373.94;;;23.56;54.08
46448;BME280;32145;50.390;30.778;2023-07-29T08:49:46;99374.84;;;23.39;54.71
46448;BME280;32145;50.390;30.778;2023-07-29T08:52:42;99376.88;;;23.51;54.68
46448;BME280;32145;50.390;30.778;2023-07-29T08:55:40;99370.25;;;23.43;53.91
46448;BME280;32145;50.390;30.778;2023-07-29T08:58:36;99374.72;;;23.56;54.60
46448;BME280;32145;50.390;30.778;2023-07-29T09:01:33;99373.53;;;23.66;55.05
46448;BME280;32145;50.390;30.778;2023-07-29T09:04:27;99361.69;;;23.66;55.57
46448;BME280;32145;50.390;30.778;2023-07-29T09:07:22;99370.00;;;23.87;55.37
46448;BME280;32145;50.390;30.778;2023-07-29T09:10:21;99370.81;;;23.88;54.24
46448;BME280;32145;50.390;30.778;2023-07-29T09:13:17;99364.13;;;24.10;55.35
46448;BME280;32145;50.390;30.778;2023-07-29T09:16:14;99362.38;;;24.05;53.67
46448;BME280;32145;50.390;30.778;2023-07-29T09:19:12;99368.31;;;23.95;54.60
46448;BME280;32145;50.390;30.778;2023-07-29T09:22:17;99359.63;;;24.05;53.96
46448;BME280;32145;50.390;30.778;2023-07-29T09:25:14;99359.72;;;24.18;54.06
46448;BME280;32145;50.390;30.778;2023-07-29T09:28:09;99365.44;;;24.13;53.24
46448;BME280;32145;50.390;30.778;2023-07-29T09:31:03;99370.59;;;23.93;53.51
46448;BME280;32145;50.390;30.778;2023-07-29T09:33:58;99365.84;;;23.72;54.09
46448;BME280;32145;50.390;30.778;2023-07-29T09:36:54;99361.22;;;23.85;54.30
46448;BME280;32145;50.390;30.778;2023-07-29T09:39:49;99357.13;;;24.13;54.62
46448;BME280;32145;50.390;30.778;2023-07-29T09:42:50;99358.47;;;24.49;53.74
46448;BME280;32145;50.390;30.778;2023-07-29T09:45:46;99356.13;;;24.51;52.80
46448;BME280;32145;50.390;30.778;2023-07-29T09:48:40;99359.41;;;24.53;52.98
46448;BME280;32145;50.390;30.778;2023-07-29T09:51:37;99349.22;;;24.45;52.96
46448;BME280;32145;50.390;30.778;2023-07-29T09:54:33;99365.00;;;24.44;53.48
46448;BME280;32145;50.390;30.778;2023-07-29T09:57:29;99354.66;;;24.54;53.81
46448;BME280;32145;50.390;30.778;2023-07-29T10:00:26;99353.63;;;24.58;54.23
46448;BME280;32145;50.390;30.778;2023-07-29T10:03:24;99351.22;;;24.69;53.08
46448;BME280;32145;50.390;30.778;2023-07-29T10:06:21;99351.53;;;24.55;53.41
46448;BME280;32145;50.390;30.778;2023-07-29T10:09:19;99346.56;;;24.49;52.71
46448;BME280;32145;50.390;30.778;2023-07-29T10:12:18;99337.75;;;24.46;53.60
46448;BME280;32145;50.390;30.778;2023-07-29T10:15:15;99332.72;;;24.61;52.78
46448;BME280;32145;50.390;30.778;2023-07-29T10:18:09;99344.63;;;24.62;53.26
46448;BME280;32145;50.390;30.778;2023-07-29T10:21:06;99351.56;;;24.68;53.36
46448;BME280;32145;50.390;30.778;2023-07-29T10:24:03;99353.63;;;24.58;52.89
46448;BME280;32145;50.390;30.778;2023-07-29T10:27:02;99342.91;;;24.36;52.61
46448;BME280;32145;50.390;30.778;2023-07-29T10:30:00;99345.09;;;24.30;54.06
46448;BME280;32145;50.390;30.778;2023-07-29T10:32:58;99346.63;;;24.74;53.73
46448;BME280;32145;50.390;30.778;2023-07-29T10:35:54;99335.84;;;24.93;52.38
46448;BME280;32145;50.390;30.778;2023-07-29T10:38:49;99342.88;;;25.03;51.29
46448;BME280;32145;50.390;30.778;2023-07-29T10:42:05;99338.75;;;25.22;51.02
46448;BME280;32145;50.390;30.778;2023-07-29T10:48:39;99343.97;;;25.11;49.54
46448;BME280;32145;50.390;30.778;2023-07-29T10:51:34;99332.28;;;25.30;49.56
46448;BME280;32145;50.390;30.778;2023-07-29T10:54:28;99332.06;;;25.60;48.99
46448;BME280;32145;50.390;30.778;2023-07-29T10:57:30;99337.94;;;25.71;49.36
46448;BME280;32145;50.390;30.778;2023-07-29T11:00:30;99337.13;;;25.71;48.54
46448;BME280;32145;50.390;30.778;2023-07-29T11:03:26;99330.19;;;25.77;49.46
46448;BME280;32145;50.390;30.778;2023-07-29T11:06:23;99336.13;;;25.92;49.44
46448;BME280;32145;50.390;30.778;2023-07-29T11:09:39;99329.84;;;26.20;49.24
46448;BME280;32145;50.390;30.778;2023-07-29T11:12:40;99340.72;;;26.12;47.67
46448;BME280;32145;50.390;30.778;2023-07-29T11:15:38;99327.72;;;26.29;47.79
46448;BME280;32145;50.390;30.778;2023-07-29T11:18:33;99335.09;;;26.37;47.20
46448;BME280;32145;50.390;30.778;2023-07-29T11:21:28;99321.47;;;26.32;46.97
46448;BME280;32145;50.390;30.778;2023-07-29T11:24:22;99332.06;;;26.02;47.15
46448;BME280;32145;50.390;30.778;2023-07-29T11:27:16;99321.13;;;25.93;47.89
46448;BME280;32145;50.390;30.778;2023-07-29T11:30:12;99331.28;;;26.01;47.47
46448;BME280;32145;50.390;30.778;2023-07-29T11:33:08;99326.16;;;26.03;47.89
46448;BME280;32145;50.390;30.778;2023-07-29T11:36:03;99330.41;;;26.13;47.53
46448;BME280;32145;50.390;30.778;2023-07-29T11:39:00;99319.50;;;26.20;47.57
46448;BME280;32145;50.390;30.778;2023-07-29T11:41:56;99317.28;;;26.26;47.00
46448;BME280;32145;50.390;30.778;2023-07-29T11:44:52;99322.03;;;26.25;47.33
46448;BME280;32145;50.390;30.778;2023-07-29T11:47:49;99323.25;;;26.12;47.75
46448;BME280;32145;50.390;30.778;2023-07-29T11:50:46;99324.28;;;26.20;47.58
46448;BME280;32145;50.390;30.778;2023-07-29T11:53:41;99322.16;;;26.29;47.19
46448;BME280;32145;50.390;30.778;2023-07-29T11:56:37;99323.06;;;26.33;47.00
46448;BME280;32145;50.390;30.778;2023-07-29T11:59:31;99327.25;;;26.27;47.33
46448;BME280;32145;50.390;30.778;2023-07-29T12:02:27;99319.22;;;26.09;45.92
46448;BME280;32145;50.390;30.778;2023-07-29T12:05:22;99328.91;;;26.16;47.02
46448;BME280;32145;50.390;30.778;2023-07-29T12:08:19;99324.88;;;26.42;46.24
46448;BME280;32145;50.390;30.778;2023-07-29T12:11:13;99325.31;;;26.28;46.15
46448;BME280;32145;50.390;30.778;2023-07-29T12:14:10;99329.34;;;26.30;46.62
46448;BME280;32145;50.390;30.778;2023-07-29T12:17:06;99320.22;;;26.46;46.48
46448;BME280;32145;50.390;30.778;2023-07-29T12:20:03;99320.44;;;26.53;46.29
46448;BME280;32145;50.390;30.778;2023-07-29T12:23:00;99322.25;;;26.94;45.96
46448;BME280;32145;50.390;30.778;2023-07-29T12:25:59;99318.16;;;27.20;44.32
46448;BME280;32145;50.390;30.778;2023-07-29T12:28:53;99313.97;;;27.10;43.81
46448;BME280;32145;50.390;30.778;2023-07-29T12:31:57;99322.47;;;27.01;44.73
46448;BME280;32145;50.390;30.778;2023-07-29T12:34:54;99322.97;;;27.23;44.70
46448;BME280;32145;50.390;30.778;2023-07-29T12:37:58;99316.00;;;27.29;43.93
46448;BME280;32145;50.390;30.778;2023-07-29T12:40:54;99316.06;;;27.33;44.84
46448;BME280;32145;50.390;30.778;2023-07-29T12:43:52;99314.09;;;27.49;43.89
46448;BME280;32145;50.390;30.778;2023-07-29T12:46:48;99308.06;;;27.63;43.54
46448;BME280;32145;50.390;30.778;2023-07-29T12:49:45;99312.59;;;27.72;43.78
46448;BME280;32145;50.390;30.778;2023-07-29T12:52:41;99310.03;;;27.47;43.64
46448;BME280;32145;50.390;30.778;2023-07-29T12:55:37;99326.44;;;27.00;44.22
46448;BME280;32145;50.390;30.778;2023-07-29T12:58:33;99318.31;;;26.95;45.28
46448;BME280;32145;50.390;30.778;2023-07-29T13:01:31;99331.09;;;26.96;44.80
46448;BME280;32145;50.390;30.778;2023-07-29T13:04:27;99316.69;;;26.94;44.28
46448;BME280;32145;50.390;30.778;2023-07-29T13:07:24;99315.19;;;26.96;43.95
46448;BME280;32145;50.390;30.778;2023-07-29T13:10:20;99328.00;;;26.69;44.04
46448;BME280;32145;50.390;30.778;2023-07-29T13:13:16;99320.16;;;26.42;45.36
46448;BME280;32145;50.390;30.778;2023-07-29T13:16:11;99317.09;;;26.19;46.14
46448;BME280;32145;50.390;30.778;2023-07-29T13:19:06;99324.56;;;26.02;46.61
46448;BME280;32145;50.390;30.778;2023-07-29T13:22:00;99318.00;;;25.94;47.21
46448;BME280;32145;50.390;30.778;2023-07-29T13:24:54;99319.47;;;25.92;47.46
46448;BME280;32145;50.390;30.778;2023-07-29T13:27:51;99318.34;;;25.93;47.04
46448;BME280;32145;50.390;30.778;2023-07-29T13:30:47;99308.59;;;25.99;46.93
46448;BME280;32145;50.390;30.778;2023-07-29T13:33:41;99321.78;;;26.02;47.24
46448;BME280;32145;50.390;30.778;2023-07-29T13:36:37;99317.63;;;26.24;46.61
46448;BME280;32145;50.390;30.778;2023-07-29T13:39:31;99316.88;;;26.11;46.51
46448;BME280;32145;50.390;30.778;2023-07-29T13:42:26;99313.19;;;26.07;47.05
46448;BME280;32145;50.390;30.778;2023-07-29T13:45:22;99319.63;;;26.24;46.89
46448;BME280;32145;50.390;30.778;2023-07-29T13:48:18;99317.25;;;26.10;46.73
46448;BME280;32145;50.390;30.778;2023-07-29T13:51:15;99319.22;;;26.09;47.03
46448;BME280;32145;50.390;30.778;2023-07-29T13:54:12;99330.31;;;26.09;46.86
46448;BME280;32145;50.390;30.778;2023-07-29T13:57:08;99329.63;;;26.12;46.96
46448;BME280;32145;50.390;30.778;2023-07-29T13:59:52;99323.03;;;26.05;46.35
46448;BME280;32145;50.390;30.778;2023-07-29T14:02:36;99325.75;;;26.17;45.41
46448;BME280;32145;50.390;30.778;2023-07-29T14:05:32;99331.53;;;26.24;44.83
46448;BME280;32145;50.390;30.778;2023-07-29T14:08:29;99334.44;;;26.16;44.62
46448;BME280;32145;50.390;30.778;2023-07-29T14:11:27;99328.59;;;26.05;44.36
46448;BME280;32145;50.390;30.778;2023-07-29T14:14:23;99325.75;;;26.17;44.95
46448;BME280;32145;50.390;30.778;2023-07-29T14:17:19;99327.94;;;26.36;44.42
46448;BME280;32145;50.390;30.778;2023-07-29T14:20:16;99334.44;;;26.16;45.28
46448;BME280;32145;50.390;30.778;2023-07-29T14:23:12;99331.38;;;26.05;45.80
46448;BME280;32145;50.390;30.778;2023-07-29T14:25:56;99342.72;;;25.99;45.89
46448;BME280;32145;50.390;30.778;2023-07-29T14:28:54;99344.66;;;26.11;45.51
46448;BME280;32145;50.390;30.778;2023-07-29T14:31:44;99334.66;;;26.23;45.40
46448;BME280;32145;50.390;30.778;2023-07-29T14:34:28;99336.88;;;26.17;45.38
46448;BME280;32145;50.390;30.778;2023-07-29T14:37:18;99341.91;;;25.99;45.56
46448;BME280;32145;50.390;30.778;2023-07-29T14:40:12;99337.00;;;25.80;45.70
46448;BME280;32145;50.390;30.778;2023-07-29T14:43:07;99337.13;;;25.58;46.39
46448;BME280;32145;50.390;30.778;2023-07-29T14:46:02;99343.00;;;25.57;46.96
46448;BME280;32145;50.390;30.778;2023-07-29T14:48:57;99333.31;;;25.51;46.51
46448;BME280;32145;50.390;30.778;2023-07-29T14:51:51;99346.38;;;25.38;46.80
46448;BME280;32145;50.390;30.778;2023-07-29T14:54:45;99348.25;;;25.33;47.04
46448;BME280;32145;50.390;30.778;2023-07-29T14:57:42;99347.41;;;25.33;46.96
46448;BME280;32145;50.390;30.778;2023-07-29T15:00:38;99345.91;;;25.48;46.21
46448;BME280;32145;50.390;30.778;2023-07-29T15:03:34;99343.50;;;25.71;45.23
46448;BME280;32145;50.390;30.778;2023-07-29T15:06:28;99350.84;;;25.92;44.37
46448;BME280;32145;50.390;30.778;2023-07-29T15:09:22;99353.22;;;26.06;43.11
46448;BME280;32145;50.390;30.778;2023-07-29T15:12:17;99354.91;;;26.23;42.07
46448;BME280;32145;50.390;30.778;2023-07-29T15:15:12;99357.13;;;26.30;41.53
46448;BME280;32145;50.390;30.778;2023-07-29T15:18:06;99345.31;;;26.33;41.24
46448;BME280;32145;50.390;30.778;2023-07-29T15:21:04;99356.28;;;26.30;41.64
46448;BME280;32145;50.390;30.778;2023-07-29T15:24:00;99354.81;;;26.32;41.54